Time;durP1;ratioP1;P1;durP2;ratioP2;P2;SDS_P1;SDS_P2;PMS_P1;PMS_P2;Temp;Humidity;BMP_temperature;BMP_pressure;BME280_temperature;BME280_humidity;BME280_pressure;Samples;Min_cycle;Max_cycle;Signal;HPM_P1;HPM_P2
2024/04/18 00:01:35;;;;;;;0.50;0.50;;;;;;;4.64;63.10;100257.94;5392671;26;20035;-68
2024/04/18 00:04:01;;;;;;;0.45;0.45;;;;;;;4.60;62.87;100253.56;5392638;26;20007;-66
2024/04/18 00:06:26;;;;;;;0.98;0.98;;;;;;;4.59;63.04;100269.84;5390858;26;19996;-67
2024/04/18 00:08:51;;;;;;;0.93;0.93;;;;;;;4.57;62.91;100263.81;5393005;26;20042;-67
2024/04/18 00:11:17;;;;;;;0.50;0.50;;;;;;;4.57;62.99;100264.69;5391322;26;20072;-66
2024/04/18 00:13:42;;;;;;;0.50;0.50;;;;;;;4.46;63.82;100261.09;5392907;26;20037;-67
2024/04/18 00:16:07;;;;;;;0.55;0.55;;;;;;;4.43;64.13;100268.78;5392450;26;20004;-67
2024/04/18 00:18:33;;;;;;;1.30;0.95;;;;;;;4.42;64.12;100269.63;5392641;26;20004;-66
2024/04/18 00:20:58;;;;;;;4.97;0.70;;;;;;;4.37;63.50;100255.81;5389713;26;20010;-66
2024/04/18 00:23:24;;;;;;;1.20;1.08;;;;;;;4.26;64.11;100253.09;5393039;26;20004;-68
2024/04/18 00:25:49;;;;;;;0.68;0.68;;;;;;;4.23;64.00;100248.78;5390855;26;20042;-67
2024/04/18 00:28:14;;;;;;;0.52;0.52;;;;;;;4.22;63.55;100255.63;5392891;26;20442;-67
2024/04/18 00:30:40;;;;;;;0.77;0.50;;;;;;;4.17;64.04;100259.81;5392619;26;20131;-67
2024/04/18 00:33:06;;;;;;;0.40;0.40;;;;;;;4.06;64.43;100262.22;5392321;26;20012;-67
2024/04/18 00:35:31;;;;;;;0.68;0.50;;;;;;;4.03;64.58;100272.47;5392607;26;20028;-66
2024/04/18 00:37:56;;;;;;;0.40;0.40;;;;;;;3.95;65.60;100259.50;5392150;26;20011;-66
2024/04/18 00:40:22;;;;;;;3.45;0.52;;;;;;;3.86;65.79;100274.75;5392241;26;20004;-65
2024/04/18 00:42:47;;;;;;;0.50;0.50;;;;;;;3.75;66.80;100281.41;5392256;26;20371;-66
2024/04/18 00:45:13;;;;;;;0.47;0.47;;;;;;;3.59;66.82;100273.44;5392244;26;20000;-67
2024/04/18 00:47:39;;;;;;;0.50;0.50;;;;;;;3.51;67.31;100273.28;5423120;26;20011;-66
2024/04/18 00:50:07;;;;;;;0.50;0.50;;;;;;;3.43;67.75;100273.16;5426366;26;20053;-67
2024/04/18 00:52:32;;;;;;;0.45;0.45;;;;;;;3.34;68.25;100270.38;5396338;26;20023;-68
2024/04/18 00:54:57;;;;;;;0.68;0.68;;;;;;;3.28;68.47;100280.53;5427908;26;20010;-66
2024/04/18 00:57:23;;;;;;;0.50;0.50;;;;;;;3.22;68.55;100277.03;5427608;26;19999;-66
2024/04/18 00:59:50;;;;;;;0.40;0.40;;;;;;;3.20;68.92;100273.56;5427643;26;19999;-66
2024/04/18 01:02:16;;;;;;;0.50;0.50;;;;;;;3.16;68.75;100266.66;5395998;26;20044;-66
2024/04/18 01:04:42;;;;;;;0.50;0.50;;;;;;;3.15;68.69;100270.03;5427520;26;20007;-66
2024/04/18 01:07:07;;;;;;;0.95;0.85;;;;;;;3.20;68.57;100278.69;5427467;26;20035;-67
2024/04/18 01:09:32;;;;;;;0.63;0.63;;;;;;;3.17;68.73;100268.38;5427997;26;20004;-66
2024/04/18 01:11:57;;;;;;;0.40;0.40;;;;;;;3.19;69.01;100278.66;5427416;26;20012;-66
2024/04/18 01:14:23;;;;;;;0.45;0.45;;;;;;;3.20;68.98;100265.88;5427625;26;20000;-67
2024/04/18 01:16:48;;;;;;;0.60;0.60;;;;;;;3.23;68.35;100277.88;5395915;26;20015;-66
2024/04/18 01:19:18;;;;;;;0.50;0.50;;;;;;;3.24;68.59;100278.75;5427385;26;20003;-66
2024/04/18 01:21:44;;;;;;;0.50;0.50;;;;;;;3.25;68.20;100275.34;5427312;26;20014;-67
2024/04/18 01:24:13;;;;;;;0.40;0.40;;;;;;;3.26;68.33;100282.22;5395937;26;20003;-67
2024/04/18 01:26:39;;;;;;;0.70;0.70;;;;;;;3.22;68.15;100279.59;5426993;26;20000;-67
2024/04/18 01:29:05;;;;;;;0.50;0.50;;;;;;;3.21;68.17;100279.56;5426992;26;20041;-67
2024/04/18 01:31:30;;;;;;;0.50;0.50;;;;;;;3.18;67.67;100280.34;5426815;26;19999;-66
2024/04/18 01:33:57;;;;;;;0.60;0.60;;;;;;;3.19;68.21;100282.09;5430318;26;20004;-67
2024/04/18 01:36:25;;;;;;;0.43;0.43;;;;;;;3.10;68.08;100279.31;5430728;26;20035;-66
2024/04/18 01:38:51;;;;;;;2.80;1.50;;;;;;;3.15;68.53;100280.28;5399156;26;19996;-66
2024/04/18 01:41:18;;;;;;;0.40;0.40;;;;;;;3.12;68.87;100285.38;5429876;26;20014;-65
2024/04/18 01:43:44;;;;;;;0.45;0.45;;;;;;;3.11;68.61;100281.09;5430848;26;20040;-66
2024/04/18 01:46:09;;;;;;;0.50;0.50;;;;;;;3.12;68.47;100282.81;5429869;26;20003;-65
2024/04/18 01:48:35;;;;;;;0.50;0.50;;;;;;;3.12;68.48;100274.22;5398743;26;20016;-66
2024/04/18 01:51:02;;;;;;;0.65;0.65;;;;;;;3.07;68.39;100275.00;5398893;26;20010;-66
2024/04/18 01:53:28;;;;;;;0.63;0.47;;;;;;;3.06;68.19;100274.97;5430540;26;20010;-68
2024/04/18 01:55:54;;;;;;;0.82;0.82;;;;;;;3.04;68.15;100281.78;5430149;26;19999;-67
2024/04/18 01:58:19;;;;;;;0.40;0.40;;;;;;;2.97;68.04;100273.13;5398952;26;20011;-66
2024/04/18 02:00:45;;;;;;;1.30;0.73;;;;;;;2.93;68.30;100264.47;5430020;26;20073;-67
2024/04/18 02:03:10;;;;;;;0.85;0.60;;;;;;;2.92;68.09;100272.13;5398888;26;19999;-67
2024/04/18 02:05:36;;;;;;;0.50;0.50;;;;;;;2.88;68.01;100271.19;5430289;26;20459;-66
2024/04/18 02:08:01;;;;;;;0.50;0.50;;;;;;;2.89;68.08;100270.34;5430378;26;20000;-66
2024/04/18 02:10:27;;;;;;;0.75;0.75;;;;;;;2.88;67.99;100268.63;5429917;26;20032;-67
2024/04/18 02:12:56;;;;;;;0.65;0.65;;;;;;;2.91;67.98;100266.13;5430233;26;20010;-67
2024/04/18 02:15:23;;;;;;;0.50;0.50;;;;;;;2.95;67.78;100267.94;5398683;26;20036;-66
2024/04/18 02:17:48;;;;;;;0.40;0.40;;;;;;;2.99;67.76;100263.72;5429768;26;20079;-67
2024/04/18 02:20:13;;;;;;;0.50;0.50;;;;;;;2.99;67.42;100265.44;5430171;26;20443;-66
2024/04/18 02:22:39;;;;;;;2.75;0.80;;;;;;;3.00;67.89;100269.72;5430024;26;20011;-67
2024/04/18 02:25:11;;;;;;;1.00;0.60;;;;;;;3.01;67.44;100258.63;5429880;26;20015;-66
2024/04/18 02:27:37;;;;;;;0.43;0.43;;;;;;;3.00;67.37;100256.91;5430223;26;20023;-68
2024/04/18 02:30:06;;;;;;;0.55;0.55;;;;;;;3.00;67.69;100256.91;5430248;26;20006;-67
2024/04/18 02:32:32;;;;;;;0.50;0.50;;;;;;;3.02;67.53;100263.78;5429663;26;20000;-67
2024/04/18 02:34:57;;;;;;;1.10;1.05;;;;;;;2.99;67.41;100255.19;5429718;26;20011;-67
2024/04/18 02:37:23;;;;;;;0.68;0.68;;;;;;;3.06;67.45;100259.59;5429471;26;20000;-66
2024/04/18 02:39:48;;;;;;;0.50;0.50;;;;;;;3.06;66.95;100264.72;5428741;26;20003;-67
2024/04/18 02:42:16;;;;;;;0.70;0.70;;;;;;;3.09;67.24;100269.91;5429531;26;20015;-67
2024/04/18 02:44:42;;;;;;;0.40;0.40;;;;;;;3.06;67.07;100267.28;5428621;26;20015;-66
2024/04/18 02:47:08;;;;;;;0.82;0.82;;;;;;;3.03;67.05;100270.66;5429026;26;19999;-66
2024/04/18 02:49:33;;;;;;;3.83;1.25;;;;;;;2.95;67.39;100256.81;5429662;26;20004;-66
2024/04/18 02:51:58;;;;;;;0.50;0.50;;;;;;;2.99;67.23;100271.41;5397861;26;20015;-66
2024/04/18 02:54:24;;;;;;;0.65;0.65;;;;;;;2.99;66.96;100274.00;5429182;26;20004;-67
2024/04/18 02:56:49;;;;;;;8.68;1.08;;;;;;;2.92;67.04;100265.31;5429108;26;19999;-67
2024/04/18 02:59:16;;;;;;;0.50;0.50;;;;;;;2.92;67.10;100267.88;5397537;26;20000;-67
2024/04/18 03:01:41;;;;;;;0.60;0.60;;;;;;;2.84;67.19;100266.84;5428684;26;20011;-66
2024/04/18 03:04:06;;;;;;;0.50;0.50;;;;;;;2.82;67.23;100269.38;5429377;26;20018;-67
2024/04/18 03:06:31;;;;;;;0.50;0.50;;;;;;;2.76;67.29;100266.69;5397743;26;19996;-66
2024/04/18 03:08:57;;;;;;;0.50;0.50;;;;;;;2.76;67.32;100271.81;5429030;26;20000;-68
2024/04/18 03:11:22;;;;;;;0.50;0.50;;;;;;;2.72;67.33;100280.25;5429118;26;20022;-67
2024/04/18 03:13:47;;;;;;;1.30;0.98;;;;;;;2.70;67.22;100285.34;5429107;26;20014;-67
2024/04/18 03:16:14;;;;;;;0.70;0.70;;;;;;;2.68;67.71;100283.59;5429152;26;20525;-66
2024/04/18 03:18:41;;;;;;;1.08;1.08;;;;;;;2.63;68.03;100285.19;5429083;26;20007;-66
2024/04/18 03:21:06;;;;;;;0.50;0.50;;;;;;;2.58;68.15;100288.53;5428825;26;19999;-67
2024/04/18 03:23:32;;;;;;;0.55;0.55;;;;;;;2.55;68.12;100291.03;5429032;26;20082;-66
2024/04/18 03:25:57;;;;;;;1.40;1.02;;;;;;;2.45;68.16;100282.25;5428768;26;20003;-66
2024/04/18 03:28:22;;;;;;;0.70;0.60;;;;;;;2.48;68.44;100295.13;5428857;26;20017;-67
2024/04/18 03:30:48;;;;;;;0.50;0.50;;;;;;;2.48;68.33;100297.69;5428508;26;20020;-66
2024/04/18 03:33:13;;;;;;;0.50;0.50;;;;;;;2.45;68.56;100295.06;5428750;26;20018;-67
2024/04/18 03:35:39;;;;;;;0.40;0.40;;;;;;;2.42;68.69;100292.44;5429089;26;20476;-67
2024/04/18 03:38:04;;;;;;;14.30;1.10;;;;;;;2.45;68.55;100291.63;5428763;26;20007;-67
2024/04/18 03:40:29;;;;;;;0.63;0.63;;;;;;;2.44;68.36;100295.91;5397168;26;20019;-67
2024/04/18 03:42:55;;;;;;;0.60;0.60;;;;;;;2.44;68.37;100289.91;5428439;26;20004;-66
2024/04/18 03:45:20;;;;;;;0.73;0.73;;;;;;;2.42;68.85;100292.44;5428673;26;20003;-66
2024/04/18 03:47:45;;;;;;;5.30;1.50;;;;;;;2.43;68.67;100291.59;5428339;26;20000;-66
2024/04/18 03:50:11;;;;;;;0.60;0.60;;;;;;;2.41;68.65;100292.41;5428523;26;20004;-66
2024/04/18 03:52:37;;;;;;;1.05;0.98;;;;;;;2.45;68.86;100300.19;5428343;26;20011;-66
2024/04/18 03:55:02;;;;;;;14.90;1.30;;;;;;;2.46;69.04;100291.66;5427933;26;20017;-66
2024/04/18 03:57:28;;;;;;;3.20;0.75;;;;;;;2.50;69.08;100294.28;5395774;26;19996;-67
2024/04/18 03:59:53;;;;;;;0.75;0.75;;;;;;;2.51;69.39;100296.88;5428462;26;20018;-68
2024/04/18 04:02:18;;;;;;;9.95;1.48;;;;;;;2.59;69.40;100304.75;5428513;26;20049;-66
2024/04/18 04:04:44;;;;;;;0.70;0.70;;;;;;;2.60;69.49;100307.34;5396775;26;20451;-67
2024/04/18 04:07:09;;;;;;;0.65;0.65;;;;;;;2.63;69.76;100301.44;5428469;26;20019;-67
2024/04/18 04:09:35;;;;;;;0.60;0.60;;;;;;;2.65;69.73;100299.75;5396938;26;20041;-66
2024/04/18 04:12:01;;;;;;;4.05;2.45;;;;;;;2.70;69.63;100297.34;5428272;26;20015;-67
2024/04/18 04:14:26;;;;;;;0.98;0.70;;;;;;;2.75;69.67;100292.31;5428722;26;20004;-67
2024/04/18 04:16:51;;;;;;;8.68;1.48;;;;;;;2.71;70.03;100286.22;5427644;26;19999;-68
2024/04/18 04:19:17;;;;;;;3.40;1.88;;;;;;;2.78;69.64;100294.94;5428299;26;20063;-67
2024/04/18 04:21:42;;;;;;;0.98;0.85;;;;;;;2.82;69.69;100291.59;5428431;26;20012;-66
2024/04/18 04:24:08;;;;;;;5.40;1.65;;;;;;;2.95;69.74;100293.59;5396537;26;20000;-67
2024/04/18 04:26:33;;;;;;;0.70;0.70;;;;;;;3.20;70.24;100301.78;5427944;26;20076;-65
2024/04/18 04:29:01;;;;;;;0.75;0.75;;;;;;;3.62;71.31;100306.84;5396570;26;20008;-67
2024/04/18 04:31:28;;;;;;;1.30;1.02;;;;;;;4.16;71.90;100299.22;5427688;26;20065;-68
2024/04/18 04:33:54;;;;;;;1.00;1.00;;;;;;;4.69;71.79;100300.03;5427806;26;19999;-67
2024/04/18 04:36:20;;;;;;;1.58;1.05;;;;;;;5.17;71.79;100302.34;5427721;26;19996;-67
2024/04/18 04:38:45;;;;;;;2.83;1.67;;;;;;;5.52;71.86;100297.56;5427750;26;20498;-68
2024/04/18 04:41:10;;;;;;;3.00;1.52;;;;;;;5.86;71.72;100303.06;5427440;26;20011;-67
2024/04/18 04:43:38;;;;;;;1.27;1.13;;;;;;;5.97;70.77;100303.16;5396253;26;19999;-67
2024/04/18 04:46:04;;;;;;;1.55;1.45;;;;;;;5.90;69.87;100303.94;5428285;26;20003;-67
2024/04/18 04:48:29;;;;;;;4.22;1.50;;;;;;;5.72;69.29;100307.22;5428133;26;20010;-68
2024/04/18 04:50:58;;;;;;;0.88;0.88;;;;;;;5.57;68.89;100308.78;5396661;26;19995;-68
2024/04/18 04:53:24;;;;;;;0.70;0.70;;;;;;;5.28;68.49;100307.63;5427746;26;20015;-67
2024/04/18 04:55:49;;;;;;;1.55;1.45;;;;;;;5.02;68.34;100318.44;5427657;26;20003;-68
2024/04/18 04:58:14;;;;;;;1.90;1.00;;;;;;;4.61;67.94;100314.47;5396265;26;20067;-66
2024/04/18 05:00:40;;;;;;;1.70;1.10;;;;;;;4.39;67.95;100318.41;5427464;26;20011;-67
2024/04/18 05:03:05;;;;;;;0.60;0.60;;;;;;;4.14;68.18;100330.88;5427162;26;20072;-66
2024/04/18 05:05:31;;;;;;;0.52;0.52;;;;;;;3.93;68.81;100333.09;5396057;26;20049;-67
2024/04/18 05:07:56;;;;;;;1.02;0.93;;;;;;;3.93;69.96;100330.50;5397569;26;19995;-67
2024/04/18 05:10:21;;;;;;;0.63;0.50;;;;;;;4.45;71.17;100339.94;5430786;26;19999;-67
2024/04/18 05:12:48;;;;;;;0.73;0.73;;;;;;;4.81;70.53;100334.44;5399591;26;20010;-67
2024/04/18 05:15:13;;;;;;;1.10;1.00;;;;;;;4.98;70.16;100339.84;5399237;26;20000;-68
2024/04/18 05:17:39;;;;;;;0.57;0.57;;;;;;;5.07;69.98;100337.38;5430274;26;20014;-68
2024/04/18 05:20:04;;;;;;;1.17;1.10;;;;;;;5.42;70.11;100327.50;5430898;26;20014;-68
2024/04/18 05:22:30;;;;;;;0.50;0.50;;;;;;;5.85;70.84;100332.25;5430564;26;20000;-68
2024/04/18 05:24:55;;;;;;;0.90;0.90;;;;;;;6.09;68.87;100340.25;5430531;26;20004;-69
2024/04/18 05:27:21;;;;;;;0.60;0.60;;;;;;;6.04;69.01;100335.00;5399160;26;20011;-68
2024/04/18 05:32:31;;;;;;;4.15;0.90;;;;;;;7.12;70.94;100335.78;5430391;26;20014;-67
2024/04/18 05:34:56;;;;;;;0.88;0.70;;;;;;;7.61;70.07;100327.34;5430801;26;20000;-66
2024/04/18 05:37:22;;;;;;;1.25;0.90;;;;;;;7.60;68.89;100329.91;5430356;26;20010;-67
2024/04/18 05:39:48;;;;;;;0.75;0.70;;;;;;;7.80;69.22;100328.25;5430041;26;20000;-68
2024/04/18 05:42:13;;;;;;;1.08;0.82;;;;;;;7.80;67.67;100335.13;5430040;26;20068;-68
2024/04/18 05:44:39;;;;;;;0.77;0.77;;;;;;;7.68;67.43;100335.97;5430191;26;20011;-69
2024/04/18 05:47:05;;;;;;;0.60;0.60;;;;;;;7.97;69.24;100342.06;5429603;26;20045;-67
2024/04/18 05:49:31;;;;;;;0.57;0.57;;;;;;;8.64;69.91;100330.00;5430449;26;20000;-67
2024/04/18 05:51:56;;;;;;;0.52;0.52;;;;;;;9.54;68.93;100333.13;5430179;26;20003;-68
2024/04/18 05:54:21;;;;;;;0.70;0.70;;;;;;;10.49;68.15;100334.22;5430597;26;20032;-68
2024/04/18 05:56:47;;;;;;;0.82;0.50;;;;;;;11.13;66.22;100331.81;5430518;26;20444;-67
2024/04/18 05:59:12;;;;;;;0.45;0.45;;;;;;;11.35;62.96;100339.38;5430643;26;20003;-66
2024/04/18 06:01:37;;;;;;;0.55;0.55;;;;;;;11.31;63.00;100339.44;5430013;26;20508;-67
2024/04/18 06:04:03;;;;;;;1.10;0.60;;;;;;;11.04;61.37;100337.13;5430283;26;20000;-67
2024/04/18 06:06:28;;;;;;;0.77;0.60;;;;;;;10.42;59.11;100338.59;5430227;26;20003;-68
2024/04/18 06:08:54;;;;;;;0.45;0.40;;;;;;;9.62;57.58;100333.09;5398839;26;20010;-67
2024/04/18 06:11:35;;;;;;;0.50;0.50;;;;;;;8.71;58.73;100342.91;5398692;26;20004;-67
2024/04/18 06:14:04;;;;;;;0.63;0.63;;;;;;;8.48;60.45;100348.97;5398368;26;20011;-68
2024/04/18 06:16:31;;;;;;;0.60;0.60;;;;;;;8.93;61.18;100334.25;5429967;26;20447;-67
2024/04/18 06:18:56;;;;;;;4.18;1.05;;;;;;;9.40;60.29;100344.44;5428819;26;20003;-68
2024/04/18 06:21:22;;;;;;;0.50;0.50;;;;;;;9.58;59.29;100345.22;5430167;26;20023;-68
2024/04/18 06:23:47;;;;;;;1.63;1.10;;;;;;;9.16;56.14;100354.03;5430026;26;20007;-67
2024/04/18 06:26:13;;;;;;;0.60;0.60;;;;;;;8.32;55.46;100354.16;5429780;26;20003;-69
2024/04/18 06:28:38;;;;;;;0.68;0.65;;;;;;;7.84;56.94;100348.94;5429734;26;20008;-68
2024/04/18 06:31:04;;;;;;;0.50;0.50;;;;;;;8.02;57.95;100359.28;5429521;26;20053;-67
2024/04/18 06:33:29;;;;;;;0.95;0.60;;;;;;;8.22;57.54;100355.88;5429920;26;20076;-67
2024/04/18 06:35:55;;;;;;;0.43;0.43;;;;;;;8.28;56.81;100357.59;5429948;26;20055;-67
2024/04/18 06:38:21;;;;;;;0.60;0.60;;;;;;;8.20;55.88;100360.16;5429456;26;19995;-66
2024/04/18 06:40:46;;;;;;;0.70;0.70;;;;;;;7.94;56.30;100373.91;5429700;26;20010;-67
2024/04/18 06:43:12;;;;;;;0.50;0.50;;;;;;;8.03;57.35;100370.50;5429630;26;19996;-67
2024/04/18 06:45:38;;;;;;;0.73;0.70;;;;;;;7.92;56.06;100368.75;5429421;26;20010;-67
2024/04/18 06:48:06;;;;;;;4.03;0.80;;;;;;;7.65;55.27;100369.56;5429571;26;19996;-68
2024/04/18 06:50:31;;;;;;;7.13;1.00;;;;;;;7.67;57.05;100366.13;5429903;26;20010;-67
2024/04/18 06:52:57;;;;;;;1.25;1.15;;;;;;;8.07;58.49;100364.47;5429690;26;20004;-67
2024/04/18 06:55:22;;;;;;;0.60;0.60;;;;;;;9.04;59.23;100364.44;5398689;26;20086;-67
2024/04/18 06:57:48;;;;;;;0.63;0.55;;;;;;;9.92;57.53;100360.56;5429324;26;20331;-68
2024/04/18 07:00:14;;;;;;;0.65;0.60;;;;;;;10.48;55.17;100359.31;5429432;26;20012;-67
2024/04/18 07:02:39;;;;;;;1.17;0.73;;;;;;;10.41;53.99;100363.66;5429335;26;20010;-67
2024/04/18 07:05:05;;;;;;;1.00;0.57;;;;;;;10.20;53.36;100361.25;5398252;26;20428;-67
2024/04/18 07:07:30;;;;;;;0.80;0.70;;;;;;;10.22;53.10;100368.16;5429511;26;20490;-66
2024/04/18 07:09:55;;;;;;;0.55;0.55;;;;;;;10.14;52.60;100365.59;5429759;26;20003;-66
2024/04/18 07:12:21;;;;;;;0.57;0.55;;;;;;;9.50;51.39;100371.19;5397604;26;19996;-66
2024/04/18 07:14:46;;;;;;;0.50;0.50;;;;;;;8.84;52.04;100367.06;5429123;26;20560;-66
2024/04/18 07:17:11;;;;;;;0.50;0.50;;;;;;;8.17;52.28;100384.31;5429140;26;19999;-66
2024/04/18 07:19:37;;;;;;;0.60;0.60;;;;;;;7.74;53.37;100376.47;5429381;26;20000;-67
2024/04/18 07:22:03;;;;;;;2.95;0.70;;;;;;;8.06;54.36;100389.47;5429135;26;20055;-65
2024/04/18 07:24:30;;;;;;;0.60;0.50;;;;;;;8.06;53.79;100384.31;5428987;26;20227;-66
2024/04/18 07:26:55;;;;;;;0.60;0.60;;;;;;;7.86;52.93;100386.84;5429118;26;19999;-66
2024/04/18 07:29:21;;;;;;;0.40;0.40;;;;;;;7.42;53.18;100384.13;5429217;26;19999;-66
2024/04/18 07:31:46;;;;;;;1.10;0.70;;;;;;;7.15;54.07;100387.41;5428405;26;20041;-66
2024/04/18 07:34:16;;;;;;;1.13;1.02;;;;;;;7.03;54.24;100395.94;5428971;26;20003;-66
2024/04/18 07:36:45;;;;;;;1.50;0.88;;;;;;;6.69;54.61;100387.13;5428659;26;20003;-67
2024/04/18 07:39:11;;;;;;;1.15;0.90;;;;;;;6.55;54.58;100393.94;5429246;26;20046;-67
2024/04/18 07:41:36;;;;;;;0.68;0.50;;;;;;;6.31;54.95;100385.13;5428794;26;20008;-66
2024/04/18 07:44:01;;;;;;;0.88;0.70;;;;;;;6.32;55.46;100390.31;5429156;26;20014;-66
2024/04/18 07:46:31;;;;;;;0.45;0.45;;;;;;;6.29;55.81;100381.66;5428381;26;20031;-67
2024/04/18 07:48:57;;;;;;;0.80;0.80;;;;;;;6.20;56.04;100395.31;5426969;26;20010;-68
2024/04/18 07:51:22;;;;;;;0.70;0.70;;;;;;;6.33;56.06;100401.47;5397618;26;19999;-66
2024/04/18 07:53:48;;;;;;;0.40;0.40;;;;;;;6.41;56.37;100391.22;5428934;26;20003;-66
2024/04/18 07:56:13;;;;;;;0.50;0.50;;;;;;;6.38;56.30;100397.22;5428596;26;20010;-65
2024/04/18 07:58:38;;;;;;;2.65;1.10;;;;;;;6.15;56.32;100394.44;5428845;26;20039;-67
2024/04/18 08:01:05;;;;;;;0.52;0.52;;;;;;;6.05;56.41;100396.06;5428646;26;20053;-67
2024/04/18 08:03:30;;;;;;;0.73;0.73;;;;;;;6.11;57.26;100395.22;5397151;26;20004;-67
2024/04/18 08:05:56;;;;;;;1.38;0.63;;;;;;;6.34;57.26;100397.19;5428680;26;20424;-67
2024/04/18 08:08:21;;;;;;;1.35;1.25;;;;;;;6.54;57.14;100387.91;5428601;26;20507;-67
2024/04/18 08:10:47;;;;;;;0.60;0.60;;;;;;;6.94;56.42;100399.34;5428822;26;20054;-67
2024/04/18 08:13:12;;;;;;;0.90;0.60;;;;;;;7.36;56.01;100389.25;5428359;26;20014;-67
2024/04/18 08:15:39;;;;;;;0.60;0.60;;;;;;;8.05;55.34;100395.50;5428680;26;20013;-66
2024/04/18 08:18:05;;;;;;;0.50;0.50;;;;;;;8.54;53.61;100380.00;5428269;26;20000;-67
2024/04/18 08:20:30;;;;;;;0.43;0.43;;;;;;;8.62;53.14;100362.78;5428612;26;20435;-67
2024/04/18 08:22:55;;;;;;;0.65;0.65;;;;;;;8.59;52.99;100362.81;5428187;26;20017;-66
2024/04/18 08:25:21;;;;;;;0.95;0.60;;;;;;;9.07;53.14;100369.63;5396999;26;20014;-66
2024/04/18 08:27:46;;;;;;;0.60;0.60;;;;;;;9.60;52.89;100359.03;5428296;26;20004;-67
2024/04/18 08:30:11;;;;;;;0.85;0.63;;;;;;;10.27;50.22;100356.00;5428515;26;20431;-66
2024/04/18 08:32:37;;;;;;;0.65;0.60;;;;;;;10.49;49.98;100362.78;5427790;26;20117;-66
2024/04/18 08:35:02;;;;;;;2.30;1.17;;;;;;;10.99;49.36;100359.72;5396997;26;20000;-66
2024/04/18 08:37:28;;;;;;;0.50;0.50;;;;;;;11.59;49.67;100362.44;5428092;26;20023;-67
2024/04/18 08:39:53;;;;;;;0.50;0.50;;;;;;;12.09;47.88;100360.03;5397330;26;20006;-67
2024/04/18 08:42:22;;;;;;;0.68;0.68;;;;;;;12.12;45.78;100357.38;5395420;26;20344;-67
2024/04/18 08:44:51;;;;;;;0.35;0.35;;;;;;;11.86;44.58;100352.53;5428110;26;19999;-66
2024/04/18 08:47:18;;;;;;;0.63;0.63;;;;;;;11.43;44.26;100374.78;5427652;26;20125;-66
2024/04/18 08:49:44;;;;;;;0.60;0.60;;;;;;;11.19;44.54;100362.09;5428106;26;20003;-67
2024/04/18 08:52:12;;;;;;;0.65;0.65;;;;;;;11.35;44.50;100364.50;5428011;26;20072;-66
2024/04/18 08:54:43;;;;;;;0.40;0.40;;;;;;;11.56;43.72;100355.56;5396962;26;20406;-68
2024/04/18 08:57:10;;;;;;;0.45;0.45;;;;;;;11.52;42.63;100369.47;5427781;26;20004;-67
2024/04/18 08:59:36;;;;;;;0.50;0.50;;;;;;;11.45;43.77;100362.63;5428124;26;20020;-66
2024/04/18 09:02:02;;;;;;;0.50;0.50;;;;;;;12.00;44.15;100360.13;5427296;26;20026;-67
2024/04/18 09:04:29;;;;;;;0.50;0.50;;;;;;;11.74;43.22;100349.22;5427836;26;20011;-66
2024/04/18 09:06:54;;;;;;;0.40;0.40;;;;;;;11.67;43.92;100355.41;5427678;26;20012;-66
2024/04/18 09:09:22;;;;;;;0.63;0.63;;;;;;;12.38;43.95;100350.06;5427760;26;20004;-67
2024/04/18 09:11:48;;;;;;;3.50;0.60;;;;;;;13.04;42.66;100339.28;5427571;26;20003;-68
2024/04/18 09:14:13;;;;;;;0.90;0.57;;;;;;;13.82;40.21;100352.47;5427540;26;20450;-66
2024/04/18 09:16:39;;;;;;;0.40;0.40;;;;;;;14.09;39.53;100350.97;5427136;26;20332;-68
2024/04/18 09:19:04;;;;;;;0.40;0.40;;;;;;;14.02;39.64;100341.59;5395962;26;20021;-67
2024/04/18 09:21:30;;;;;;;0.60;0.57;;;;;;;13.37;39.72;100349.91;5427412;26;19999;-67
2024/04/18 09:23:57;;;;;;;0.50;0.50;;;;;;;12.63;40.72;100341.81;5427310;26;20006;-66
2024/04/18 09:26:26;;;;;;;0.55;0.55;;;;;;;12.23;41.48;100346.81;5427212;26;20000;-67
2024/04/18 09:28:51;;;;;;;0.65;0.60;;;;;;;12.30;40.04;100337.13;5427471;26;20008;-66
2024/04/18 09:31:19;;;;;;;0.50;0.50;;;;;;;11.76;40.88;100347.47;5427036;26;19999;-67
2024/04/18 09:33:47;;;;;;;0.40;0.40;;;;;;;12.05;40.74;100334.03;5395530;26;20003;-67
2024/04/18 09:36:15;;;;;;;5.82;0.75;;;;;;;12.98;40.40;100332.47;5427267;26;19999;-67
2024/04/18 09:38:45;;;;;;;0.40;0.40;;;;;;;13.85;39.24;100337.59;5427070;26;20003;-66
2024/04/18 09:41:12;;;;;;;0.40;0.40;;;;;;;14.59;38.68;100338.44;5427360;26;20327;-67
2024/04/18 09:43:56;;;;;;;0.52;0.52;;;;;;;14.61;37.44;100341.88;5427146;26;20014;-67
2024/04/18 09:46:23;;;;;;;0.63;0.60;;;;;;;13.65;37.86;100332.84;5426470;26;20010;-67
2024/04/18 09:48:51;;;;;;;0.38;0.38;;;;;;;12.82;37.97;100329.28;5395566;26;19996;-67
2024/04/18 09:51:18;;;;;;;0.45;0.45;;;;;;;12.22;38.93;100341.63;5426535;26;20004;-67
2024/04/18 09:53:45;;;;;;;0.43;0.43;;;;;;;11.88;39.12;100346.44;5428467;26;20039;-67
2024/04/18 09:56:11;;;;;;;4.28;1.00;;;;;;;11.79;40.54;100338.75;5430317;26;20019;-67
2024/04/18 09:58:37;;;;;;;0.47;0.47;;;;;;;12.52;40.22;100342.84;5430532;26;19999;-67
2024/04/18 10:01:04;;;;;;;0.63;0.47;;;;;;;12.47;39.42;100333.41;5430423;26;20007;-66
2024/04/18 10:03:29;;;;;;;0.68;0.68;;;;;;;12.73;39.30;100339.91;5430080;26;20006;-68
2024/04/18 10:05:59;;;;;;;0.38;0.38;;;;;;;13.52;39.22;100353.13;5399056;26;19995;-68
2024/04/18 10:08:29;;;;;;;0.45;0.45;;;;;;;13.97;37.46;100338.22;5430308;26;20010;-68
2024/04/18 10:10:55;;;;;;;0.70;0.45;;;;;;;13.44;38.15;100331.53;5430421;26;20004;-67
2024/04/18 10:13:24;;;;;;;0.85;0.80;;;;;;;12.67;37.88;100334.81;5430358;26;20009;-68
2024/04/18 10:15:50;;;;;;;2.47;1.00;;;;;;;11.60;39.04;100345.97;5430480;26;20076;-67
2024/04/18 10:18:16;;;;;;;0.82;0.80;;;;;;;10.77;39.89;100340.00;5430301;26;19999;-67
2024/04/18 10:20:43;;;;;;;1.02;0.75;;;;;;;10.82;41.64;100337.38;5398807;26;20335;-67
2024/04/18 10:23:15;;;;;;;0.65;0.52;;;;;;;11.43;40.66;100341.00;5430057;26;20000;-67
2024/04/18 10:25:44;;;;;;;1.27;0.55;;;;;;;12.14;40.16;100350.41;5430240;26;19999;-68
2024/04/18 10:28:20;;;;;;;0.52;0.52;;;;;;;12.90;38.20;100331.75;5398555;26;20442;-69
2024/04/18 10:30:45;;;;;;;0.82;0.77;;;;;;;12.54;38.70;100340.19;5430178;26;20352;-67
2024/04/18 10:33:10;;;;;;;0.80;0.60;;;;;;;12.54;38.76;100328.94;5398008;26;19996;-67
2024/04/18 10:35:36;;;;;;;1.55;0.77;;;;;;;13.13;38.67;100326.06;5398813;26;20000;-67
2024/04/18 10:38:02;;;;;;;0.70;0.60;;;;;;;14.03;37.09;100327.63;5429812;26;20078;-66
2024/04/18 10:40:28;;;;;;;0.40;0.40;;;;;;;14.58;36.78;100314.06;5429795;26;19995;-69
2024/04/18 10:43:08;;;;;;;0.30;0.30;;;;;;;15.86;36.75;100320.84;5429876;26;20287;-68
2024/04/18 10:45:34;;;;;;;1.05;0.95;;;;;;;15.10;34.21;100324.00;5427979;26;20000;-67
2024/04/18 10:48:02;;;;;;;0.45;0.40;;;;;;;14.25;34.44;100324.47;5429484;26;20479;-68
2024/04/18 10:50:29;;;;;;;0.40;0.40;;;;;;;14.24;35.14;100336.69;5428203;26;19996;-67
2024/04/18 10:52:54;;;;;;;0.30;0.30;;;;;;;14.20;35.23;100318.53;5398361;26;20049;-66
2024/04/18 10:55:23;;;;;;;0.35;0.35;;;;;;;14.56;35.12;100326.31;5429791;26;20003;-67
2024/04/18 10:57:48;;;;;;;0.43;0.43;;;;;;;14.44;33.73;100319.63;5397992;26;19999;-67
2024/04/18 11:00:16;;;;;;;0.30;0.30;;;;;;;13.68;34.46;100314.50;5429799;26;20034;-68
2024/04/18 11:02:41;;;;;;;0.45;0.45;;;;;;;13.13;34.75;100314.81;5429205;26;20025;-67
2024/04/18 11:05:08;;;;;;;0.70;0.55;;;;;;;11.87;36.06;100326.50;5397497;26;20003;-67
2024/04/18 11:07:33;;;;;;;0.40;0.40;;;;;;;10.77;37.99;100326.16;5429433;26;20007;-67
2024/04/18 11:09:59;;;;;;;0.50;0.50;;;;;;;9.70;38.75;100333.91;5398013;26;20004;-68
2024/04/18 11:12:24;;;;;;;0.30;0.30;;;;;;;9.03;40.66;100329.03;5429275;26;20007;-67
2024/04/18 11:14:51;;;;;;;0.60;0.60;;;;;;;8.66;41.13;100337.75;5429332;26;20015;-67
2024/04/18 11:17:16;;;;;;;0.50;0.50;;;;;;;8.53;41.31;100342.91;5428921;26;20007;-67
2024/04/18 11:19:42;;;;;;;0.40;0.40;;;;;;;9.32;42.36;100330.66;5429472;26;20010;-67
2024/04/18 11:22:07;;;;;;;0.43;0.43;;;;;;;11.20;40.82;100327.41;5429018;26;20015;-66
2024/04/18 11:24:33;;;;;;;0.50;0.50;;;;;;;12.97;38.94;100322.06;5429480;26;20487;-67
2024/04/18 11:27:02;;;;;;;0.38;0.38;;;;;;;13.34;36.39;100310.03;5429370;26;20082;-68
2024/04/18 11:29:27;;;;;;;0.80;0.50;;;;;;;12.43;37.09;100311.75;5429335;26;20050;-68